Terminal Aerodrome Forecast
Issued by NWS

Current Version | Previous Version | Text Only | Print | Product List | Glossary Off
Versions: 1 2 3 4 5 6 7 8 9 10 11 12 13 14 15 16

000
FTUS41 KRNK 211140
TAFLWB
TAF
KLWB 211140Z 2112/2212 00000KT 1/4SM FG VV001
     FM211330 00000KT 3/4SM BR BKN003
     FM211500 00000KT P6SM BKN015
     FM212100 VRB03KT P6SM SCT030 OVC050
     FM212300 VRB03KT P6SM VCSH OVC030
     FM220400 00000KT 4SM BR OVC008
     FM220600 00000KT 2SM BR OVC008=

USA.gov is the U.S. government's official web portal to all federal, state and local government web resources and services.